Time;durP1;ratioP1;P1;durP2;ratioP2;P2;SDS_P1;SDS_P2;PMS_P1;PMS_P2;Temp;Humidity;BMP_temperature;BMP_pressure;BME280_temperature;BME280_humidity;BME280_pressure;Samples;Min_cycle;Max_cycle;Signal;HPM_P1;HPM_P2
2021/05/01 00:01:26;;;;;;;0.75;0.75;;;8.70;99.90;;;;;;4414265;32;20066;-62
2021/05/01 00:03:52;;;;;;;0.60;0.60;;;8.70;99.90;;;;;;4415227;32;20614;-62
2021/05/01 00:06:17;;;;;;;1.25;0.73;;;8.80;99.90;;;;;;4417486;32;20057;-61
2021/05/01 00:08:43;;;;;;;0.43;0.43;;;8.70;99.90;;;;;;4401853;32;20116;-61
2021/05/01 00:11:08;;;;;;;0.93;0.60;;;8.70;99.90;;;;;;4411384;32;20153;-64
2021/05/01 00:13:34;;;;;;;2.67;1.00;;;8.60;99.90;;;;;;4400737;32;20062;-61
2021/05/01 00:16:01;;;;;;;4.78;1.10;;;8.60;99.90;;;;;;4388043;32;20057;-61
2021/05/01 00:18:26;;;;;;;0.45;0.45;;;8.60;99.90;;;;;;4428477;32;20074;-62
2021/05/01 00:20:52;;;;;;;0.60;0.60;;;8.70;99.90;;;;;;4430654;32;20070;-62
2021/05/01 00:23:18;;;;;;;0.98;0.85;;;8.60;99.90;;;;;;4432254;32;20065;-62
2021/05/01 00:25:43;;;;;;;1.12;0.70;;;8.60;99.90;;;;;;4404672;32;20066;-61
2021/05/01 00:28:11;;;;;;;0.40;0.40;;;8.50;99.90;;;;;;4416544;32;20066;-63
2021/05/01 00:30:37;;;;;;;0.40;0.40;;;8.50;99.90;;;;;;4416597;32;20070;-61
2021/05/01 00:33:02;;;;;;;3.03;1.30;;;8.50;99.90;;;;;;4402053;32;20061;-62
2021/05/01 00:35:28;;;;;;;0.70;0.60;;;8.60;99.90;;;;;;4415057;32;20126;-62
2021/05/01 00:37:54;;;;;;;0.37;0.37;;;8.50;99.90;;;;;;4401973;32;20503;-61
2021/05/01 00:40:20;;;;;;;0.70;0.70;;;8.50;99.90;;;;;;4388823;32;20117;-62
2021/05/01 00:42:46;;;;;;;0.40;0.40;;;8.50;99.90;;;;;;4401609;32;20499;-62
2021/05/01 00:45:12;;;;;;;0.57;0.57;;;8.60;99.90;;;;;;4402710;32;20109;-61
2021/05/01 00:47:37;;;;;;;0.73;0.73;;;8.40;99.90;;;;;;4402836;32;20495;-62
2021/05/01 00:50:04;;;;;;;0.50;0.50;;;8.40;99.90;;;;;;4388264;32;20116;-62
2021/05/01 00:52:30;;;;;;;0.55;0.55;;;8.40;99.90;;;;;;4401799;32;20061;-61
2021/05/01 00:54:56;;;;;;;0.40;0.40;;;8.40;99.90;;;;;;4416373;32;20061;-61
2021/05/01 00:57:22;;;;;;;0.50;0.50;;;8.40;99.90;;;;;;4415761;32;20434;-61
2021/05/01 00:59:48;;;;;;;0.32;0.32;;;8.40;99.90;;;;;;4414185;32;20526;-62
2021/05/01 01:02:15;;;;;;;0.40;0.40;;;8.30;99.90;;;;;;4401108;32;20120;-62
2021/05/01 01:04:41;;;;;;;0.77;0.77;;;8.30;99.90;;;;;;4415415;32;20124;-62
2021/05/01 01:07:07;;;;;;;9.20;2.17;;;8.40;99.90;;;;;;4402070;32;20498;-62
2021/05/01 01:09:32;;;;;;;0.50;0.50;;;8.30;99.90;;;;;;4414995;32;20070;-62
2021/05/01 01:11:58;;;;;;;0.57;0.50;;;8.20;99.90;;;;;;4416158;32;20065;-61
2021/05/01 01:14:23;;;;;;;2.22;1.02;;;8.10;99.90;;;;;;4415873;32;20121;-61
2021/05/01 01:16:49;;;;;;;0.50;0.50;;;8.10;99.90;;;;;;4418979;32;20073;-62
2021/05/01 01:19:15;;;;;;;1.95;0.70;;;8.10;99.90;;;;;;4431059;32;20070;-61
2021/05/01 01:21:43;;;;;;;1.08;0.95;;;8.10;99.90;;;;;;4430914;32;20076;-62
2021/05/01 01:24:10;;;;;;;0.55;0.55;;;8.00;99.90;;;;;;4399708;32;20057;-62
2021/05/01 01:26:36;;;;;;;0.57;0.50;;;7.90;99.90;;;;;;4402249;32;20066;-61
2021/05/01 01:29:02;;;;;;;6.22;1.00;;;8.00;99.90;;;;;;4415718;32;20066;-63
2021/05/01 01:31:28;;;;;;;0.50;0.50;;;8.00;99.90;;;;;;4414383;32;20093;-62
2021/05/01 01:33:53;;;;;;;2.30;1.95;;;8.10;99.90;;;;;;4414599;32;20526;-63
2021/05/01 01:36:18;;;;;;;4.32;0.82;;;8.10;99.90;;;;;;4416081;32;20070;-63
2021/05/01 01:38:44;;;;;;;0.50;0.50;;;8.10;99.90;;;;;;4413750;32;20109;-63
2021/05/01 01:41:09;;;;;;;0.70;0.70;;;8.20;99.90;;;;;;4415343;32;20112;-63
2021/05/01 01:43:37;;;;;;;1.37;0.82;;;8.20;99.90;;;;;;4414750;32;20518;-61
2021/05/01 01:46:02;;;;;;;0.47;0.47;;;8.30;99.90;;;;;;4401772;32;20058;-62
2021/05/01 01:48:28;;;;;;;0.40;0.40;;;8.30;99.90;;;;;;4416357;32;20053;-62
2021/05/01 01:50:54;;;;;;;0.50;0.50;;;8.30;99.90;;;;;;4400179;32;20074;-62
2021/05/01 01:53:20;;;;;;;0.95;0.95;;;8.30;99.90;;;;;;4401150;32;20455;-61
2021/05/01 01:55:45;;;;;;;1.98;1.37;;;8.20;99.90;;;;;;4414754;32;20058;-62
2021/05/01 01:58:11;;;;;;;0.57;0.57;;;8.10;99.90;;;;;;4389576;32;20070;-63
2021/05/01 02:00:37;;;;;;;0.40;0.40;;;8.10;99.90;;;;;;4400015;32;20180;-62
2021/05/01 02:03:03;;;;;;;1.80;0.80;;;8.10;99.90;;;;;;4401132;32;20510;-62
2021/05/01 02:05:29;;;;;;;2.00;1.25;;;8.10;99.90;;;;;;4414504;32;20133;-63
2021/05/01 02:07:55;;;;;;;3.58;1.05;;;8.20;99.90;;;;;;4400305;32;20543;-63
2021/05/01 02:10:21;;;;;;;1.10;1.05;;;8.20;99.90;;;;;;4414884;32;20412;-63
2021/05/01 02:12:47;;;;;;;0.57;0.57;;;8.30;99.90;;;;;;4415535;32;20078;-62
2021/05/01 02:15:17;;;;;;;0.50;0.50;;;8.40;99.90;;;;;;4414798;32;20074;-62
2021/05/01 02:17:46;;;;;;;0.75;0.70;;;8.30;99.90;;;;;;4424191;32;20275;-63
2021/05/01 02:20:13;;;;;;;2.60;1.20;;;8.30;99.90;;;;;;4415326;32;20070;-63
2021/05/01 02:22:39;;;;;;;1.25;0.65;;;8.40;99.90;;;;;;4399867;32;20058;-63
2021/05/01 02:25:08;;;;;;;1.23;0.88;;;8.40;99.90;;;;;;4400400;32;20089;-61
2021/05/01 02:27:34;;;;;;;1.25;1.15;;;8.40;99.90;;;;;;4399898;32;20090;-62
2021/05/01 02:30:00;;;;;;;2.33;1.17;;;8.40;99.90;;;;;;4389141;32;20066;-61
2021/05/01 02:32:25;;;;;;;0.55;0.55;;;8.40;99.90;;;;;;4401239;32;20049;-62
2021/05/01 02:34:51;;;;;;;2.00;0.70;;;8.40;99.90;;;;;;4413266;32;20447;-62
2021/05/01 02:37:16;;;;;;;0.98;0.50;;;8.40;99.90;;;;;;4415405;32;20070;-62
2021/05/01 02:39:42;;;;;;;2.35;1.15;;;8.40;99.90;;;;;;4413646;32;20065;-62
2021/05/01 02:42:08;;;;;;;0.40;0.40;;;8.40;99.90;;;;;;4401312;32;20078;-63
2021/05/01 02:44:33;;;;;;;2.95;0.95;;;8.40;99.90;;;;;;4414421;32;20081;-61
2021/05/01 02:46:59;;;;;;;0.75;0.75;;;8.30;99.90;;;;;;4414281;32;20409;-63
2021/05/01 02:49:24;;;;;;;7.22;0.98;;;8.20;99.90;;;;;;4413291;32;20070;-62
2021/05/01 02:51:50;;;;;;;1.17;0.95;;;8.10;99.90;;;;;;4414627;32;20062;-62
2021/05/01 02:54:15;;;;;;;2.65;1.17;;;8.20;99.90;;;;;;4414521;32;20066;-61
2021/05/01 02:56:41;;;;;;;4.32;1.60;;;8.10;99.90;;;;;;4414896;32;20109;-62
2021/05/01 02:59:06;;;;;;;0.60;0.60;;;8.10;99.90;;;;;;4400284;32;20420;-60
2021/05/01 03:01:32;;;;;;;0.40;0.40;;;8.20;99.90;;;;;;4413741;32;20073;-62
2021/05/01 03:03:57;;;;;;;3.55;1.17;;;8.10;99.90;;;;;;4414321;32;20060;-62
2021/05/01 03:06:22;;;;;;;1.08;0.90;;;8.10;99.90;;;;;;4414064;32;20502;-62
2021/05/01 03:08:48;;;;;;;1.25;0.80;;;8.10;99.90;;;;;;4414160;32;20066;-62
2021/05/01 03:11:13;;;;;;;0.70;0.70;;;8.10;99.90;;;;;;4409388;32;20074;-61
2021/05/01 03:13:39;;;;;;;0.77;0.52;;;8.10;99.90;;;;;;4385426;32;20077;-62
2021/05/01 03:16:05;;;;;;;0.57;0.57;;;8.10;99.90;;;;;;4399163;32;20479;-62
2021/05/01 03:18:30;;;;;;;0.95;0.73;;;8.20;99.90;;;;;;4414150;32;20128;-61
2021/05/01 03:20:56;;;;;;;0.60;0.60;;;8.30;99.90;;;;;;4428256;32;20069;-61
2021/05/01 03:23:21;;;;;;;1.17;0.82;;;8.30;99.90;;;;;;4429089;32;20073;-62
2021/05/01 03:25:47;;;;;;;2.45;1.48;;;8.40;99.90;;;;;;4430080;32;20111;-62
2021/05/01 03:28:13;;;;;;;1.62;1.00;;;8.40;99.90;;;;;;4429577;32;20065;-62
2021/05/01 03:30:38;;;;;;;0.50;0.50;;;8.40;99.90;;;;;;4429722;32;20431;-62
2021/05/01 03:33:04;;;;;;;0.70;0.70;;;8.40;99.90;;;;;;4429184;32;20076;-62
2021/05/01 03:35:29;;;;;;;2.58;1.30;;;8.40;99.90;;;;;;4420546;32;20463;-61
2021/05/01 03:37:55;;;;;;;0.95;0.77;;;8.40;99.90;;;;;;4414365;32;20066;-62
2021/05/01 03:40:21;;;;;;;1.65;1.02;;;8.40;99.90;;;;;;4412964;32;20625;-61
2021/05/01 03:42:47;;;;;;;0.68;0.68;;;8.40;99.90;;;;;;4413386;32;20433;-62
2021/05/01 03:45:14;;;;;;;0.40;0.40;;;8.50;99.90;;;;;;4414215;32;20053;-62
2021/05/01 03:47:39;;;;;;;23.85;0.80;;;8.50;99.90;;;;;;4414052;32;20421;-62
2021/05/01 03:50:07;;;;;;;1.87;0.85;;;8.40;99.90;;;;;;4413080;32;20054;-62
2021/05/01 03:52:33;;;;;;;0.93;0.85;;;8.40;99.90;;;;;;4414018;32;20399;-62
2021/05/01 03:54:58;;;;;;;0.60;0.60;;;8.40;99.90;;;;;;4414372;32;20078;-61
2021/05/01 03:57:24;;;;;;;0.60;0.60;;;8.40;99.90;;;;;;4414100;32;20118;-61
2021/05/01 03:59:49;;;;;;;3.12;1.10;;;8.40;99.90;;;;;;4413345;32;20547;-61
2021/05/01 04:02:15;;;;;;;2.92;1.12;;;8.40;99.90;;;;;;4412422;32;20117;-62
2021/05/01 04:04:41;;;;;;;1.98;1.08;;;8.30;99.90;;;;;;4412122;32;20070;-61
2021/05/01 04:07:06;;;;;;;1.52;0.80;;;8.30;99.90;;;;;;4413463;32;20069;-62
2021/05/01 04:09:31;;;;;;;0.88;0.55;;;8.30;99.90;;;;;;4412473;32;20077;-62
2021/05/01 04:11:57;;;;;;;5.05;0.98;;;8.40;99.90;;;;;;4404513;32;20129;-60
2021/05/01 04:14:22;;;;;;;1.48;1.00;;;8.40;99.90;;;;;;4397695;32;20163;-61
2021/05/01 04:16:48;;;;;;;1.35;0.93;;;8.40;99.90;;;;;;4405150;32;20065;-62
2021/05/01 04:19:14;;;;;;;1.08;0.80;;;8.30;99.90;;;;;;4427410;32;20528;-62
2021/05/01 04:21:40;;;;;;;0.77;0.77;;;8.30;99.90;;;;;;4413946;32;20514;-61
2021/05/01 04:24:07;;;;;;;0.43;0.43;;;8.40;99.90;;;;;;4428771;32;20078;-62
2021/05/01 04:26:32;;;;;;;0.65;0.60;;;8.40;99.90;;;;;;4429066;32;20069;-62
2021/05/01 04:28:59;;;;;;;0.88;0.75;;;8.40;99.90;;;;;;4415283;32;20057;-61
2021/05/01 04:31:25;;;;;;;0.50;0.50;;;8.40;99.90;;;;;;4427378;32;20081;-62
2021/05/01 04:33:50;;;;;;;1.83;0.88;;;8.50;99.90;;;;;;4430484;32;20069;-62
2021/05/01 04:36:16;;;;;;;0.88;0.75;;;8.40;99.90;;;;;;4419647;32;20122;-62
2021/05/01 04:38:41;;;;;;;6.87;1.02;;;8.40;99.90;;;;;;4415284;32;20086;-61
2021/05/01 04:41:07;;;;;;;5.00;1.98;;;8.50;99.90;;;;;;4401693;32;20065;-62
2021/05/01 04:43:33;;;;;;;8.05;2.53;;;8.40;99.90;;;;;;4402221;32;20061;-62
2021/05/01 04:45:58;;;;;;;0.60;0.60;;;8.50;99.90;;;;;;4415251;32;20083;-61
2021/05/01 04:48:24;;;;;;;0.65;0.65;;;8.40;99.90;;;;;;4415652;32;20117;-61
2021/05/01 04:50:52;;;;;;;1.15;1.05;;;8.40;99.90;;;;;;4402539;32;20581;-61
2021/05/01 04:53:18;;;;;;;0.68;0.62;;;8.50;99.90;;;;;;4389001;32;20065;-61
2021/05/01 04:55:44;;;;;;;1.35;0.70;;;8.60;99.90;;;;;;4401479;32;20058;-61
2021/05/01 04:58:10;;;;;;;1.37;0.68;;;8.60;99.90;;;;;;4389437;32;20105;-62
2021/05/01 05:00:36;;;;;;;0.75;0.75;;;8.60;99.90;;;;;;4415789;32;20524;-61
2021/05/01 05:03:01;;;;;;;1.62;0.90;;;8.50;99.90;;;;;;4416654;32;20062;-61
2021/05/01 05:05:27;;;;;;;0.50;0.50;;;8.50;99.90;;;;;;4414723;32;20073;-61
2021/05/01 05:07:52;;;;;;;3.20;1.33;;;8.50;99.90;;;;;;4415256;32;20054;-61
2021/05/01 05:10:18;;;;;;;1.35;1.15;;;8.50;99.90;;;;;;4414821;32;20503;-62
2021/05/01 05:12:45;;;;;;;0.50;0.50;;;8.40;99.90;;;;;;4400855;32;20376;-62
2021/05/01 05:15:11;;;;;;;2.30;1.23;;;8.40;99.90;;;;;;4373518;32;20075;-62
2021/05/01 05:17:37;;;;;;;1.37;1.10;;;8.40;99.90;;;;;;4418770;32;20519;-62
2021/05/01 05:20:05;;;;;;;2.17;0.75;;;8.40;99.90;;;;;;4416661;32;20490;-62
2021/05/01 05:22:30;;;;;;;1.52;0.85;;;8.40;99.90;;;;;;4429701;32;20066;-62
2021/05/01 05:24:56;;;;;;;18.75;1.02;;;8.40;99.90;;;;;;4430547;32;20065;-62
2021/05/01 05:27:21;;;;;;;0.47;0.47;;;8.40;99.90;;;;;;4417836;32;20077;-61
2021/05/01 05:29:50;;;;;;;0.70;0.70;;;8.50;99.90;;;;;;4431504;32;20513;-62
2021/05/01 05:32:18;;;;;;;1.55;0.80;;;8.50;99.90;;;;;;4418248;32;20463;-62
2021/05/01 05:34:44;;;;;;;2.20;0.70;;;8.50;99.90;;;;;;4427704;32;20062;-62
2021/05/01 05:37:09;;;;;;;1.25;1.00;;;8.60;99.90;;;;;;4416337;32;20074;-62
2021/05/01 05:39:35;;;;;;;11.90;0.77;;;8.60;99.90;;;;;;4414741;32;20925;-62
2021/05/01 05:42:00;;;;;;;1.30;0.85;;;8.50;99.90;;;;;;4401493;32;20066;-61
2021/05/01 05:44:26;;;;;;;0.62;0.62;;;8.60;99.90;;;;;;4413567;32;20539;-61
2021/05/01 05:46:52;;;;;;;0.45;0.45;;;8.60;99.90;;;;;;4415513;32;20061;-62
2021/05/01 05:49:17;;;;;;;2.00;0.70;;;8.70;99.90;;;;;;4414545;32;20522;-62
2021/05/01 05:51:42;;;;;;;0.73;0.73;;;8.70;99.90;;;;;;4401428;32;20065;-62
2021/05/01 05:54:08;;;;;;;1.70;1.52;;;8.60;99.90;;;;;;4401115;32;20085;-63
2021/05/01 05:56:34;;;;;;;1.15;1.02;;;8.60;99.90;;;;;;4415154;32;20518;-63
2021/05/01 05:59:00;;;;;;;5.20;1.45;;;8.60;99.90;;;;;;4416480;32;20124;-61
2021/05/01 06:01:26;;;;;;;0.70;0.70;;;8.50;99.90;;;;;;4401433;32;20096;-62
2021/05/01 06:03:53;;;;;;;3.80;0.90;;;8.60;99.90;;;;;;4414643;32;20166;-62
2021/05/01 06:06:30;;;;;;;1.98;0.90;;;8.60;99.90;;;;;;4414423;32;20076;-62
2021/05/01 06:08:56;;;;;;;0.52;0.52;;;8.50;99.90;;;;;;4416016;32;20070;-63
2021/05/01 06:11:22;;;;;;;1.02;0.70;;;8.50;99.90;;;;;;4415782;32;20443;-61
2021/05/01 06:13:49;;;;;;;2.62;1.30;;;8.40;99.90;;;;;;4415977;32;20065;-62
2021/05/01 06:16:15;;;;;;;0.65;0.65;;;8.50;99.90;;;;;;4401607;32;20053;-63
2021/05/01 06:18:43;;;;;;;0.52;0.52;;;8.40;99.90;;;;;;4400209;32;20078;-63
2021/05/01 06:21:10;;;;;;;8.30;0.90;;;8.50;99.90;;;;;;4385129;32;20058;-63
2021/05/01 06:23:38;;;;;;;1.75;1.02;;;8.50;99.90;;;;;;4386405;32;20062;-63
2021/05/01 06:26:04;;;;;;;0.85;0.82;;;8.60;99.90;;;;;;4386079;32;20129;-62
2021/05/01 06:28:31;;;;;;;0.62;0.62;;;8.60;99.90;;;;;;4400510;32;20105;-62
2021/05/01 06:31:00;;;;;;;0.70;0.70;;;8.60;99.90;;;;;;4399442;32;20101;-61
2021/05/01 06:33:26;;;;;;;1.70;0.82;;;8.60;99.90;;;;;;4386508;32;20075;-62
2021/05/01 06:35:52;;;;;;;0.77;0.77;;;8.60;99.90;;;;;;4411092;32;20050;-61
2021/05/01 06:38:17;;;;;;;1.35;0.85;;;8.60;99.90;;;;;;4400588;32;20527;-61
2021/05/01 06:40:45;;;;;;;0.57;0.57;;;8.60;99.90;;;;;;4414078;32;20074;-62
2021/05/01 06:43:19;;;;;;;2.50;1.23;;;8.60;99.90;;;;;;4415110;32;20077;-62
2021/05/01 06:45:45;;;;;;;1.67;0.88;;;8.60;99.90;;;;;;4400335;32;20074;-62
2021/05/01 06:48:18;;;;;;;1.85;1.27;;;8.60;99.90;;;;;;4401106;32;20108;-62
2021/05/01 06:50:44;;;;;;;1.25;0.93;;;8.60;99.90;;;;;;4413309;32;20062;-62
2021/05/01 06:53:16;;;;;;;0.70;0.70;;;8.70;99.90;;;;;;4414738;32;20429;-62
2021/05/01 06:55:43;;;;;;;3.87;1.05;;;8.60;99.90;;;;;;4401129;32;20070;-62
2021/05/01 06:58:08;;;;;;;1.92;1.10;;;8.60;99.90;;;;;;4413847;32;20069;-61
2021/05/01 07:00:34;;;;;;;0.60;0.60;;;8.60;99.90;;;;;;4414395;32;20601;-62
2021/05/01 07:03:09;;;;;;;1.08;0.95;;;8.70;99.90;;;;;;4400194;32;20519;-63
2021/05/01 07:05:35;;;;;;;3.37;0.95;;;8.60;99.90;;;;;;4412751;32;20062;-59
2021/05/01 07:08:01;;;;;;;1.15;1.12;;;8.70;99.90;;;;;;4387035;32;20057;-60
2021/05/01 07:10:26;;;;;;;5.00;1.37;;;8.70;99.90;;;;;;4414855;32;20082;-61
2021/05/01 07:12:52;;;;;;;0.60;0.60;;;8.70;99.90;;;;;;4414759;32;20119;-62
2021/05/01 07:15:19;;;;;;;3.50;1.75;;;8.70;99.90;;;;;;4414150;32;20074;-62
2021/05/01 07:17:50;;;;;;;9.95;1.40;;;8.80;99.90;;;;;;4391164;32;20066;-62
2021/05/01 07:20:16;;;;;;;0.88;0.85;;;8.80;99.90;;;;;;4383814;32;20074;-63
2021/05/01 07:22:42;;;;;;;6.75;1.52;;;8.90;99.90;;;;;;4399044;32;20065;-62
2021/05/01 07:25:10;;;;;;;1.02;0.93;;;9.00;99.90;;;;;;4373513;32;20074;-62
2021/05/01 07:27:49;;;;;;;1.90;1.35;;;9.10;99.90;;;;;;4373856;32;20127;-61
2021/05/01 07:30:17;;;;;;;1.08;0.88;;;9.10;99.90;;;;;;4399056;32;20058;-62
2021/05/01 07:32:43;;;;;;;0.80;0.80;;;9.10;99.90;;;;;;4394767;32;20125;-62
2021/05/01 07:35:11;;;;;;;2.28;1.08;;;9.30;99.90;;;;;;4413231;32;20400;-63
2021/05/01 07:37:39;;;;;;;2.53;1.12;;;9.30;99.90;;;;;;4400890;32;20498;-63
2021/05/01 07:40:07;;;;;;;3.28;1.10;;;9.40;99.90;;;;;;4413706;32;20417;-62
2021/05/01 07:42:43;;;;;;;1.00;0.80;;;9.30;99.90;;;;;;4399435;32;20077;-63
2021/05/01 07:45:10;;;;;;;2.67;1.00;;;9.30;99.90;;;;;;4413726;32;20078;-63
2021/05/01 07:47:37;;;;;;;0.70;0.70;;;9.40;99.90;;;;;;4400575;32;20061;-63
2021/05/01 07:50:04;;;;;;;1.58;0.95;;;9.60;99.90;;;;;;4387116;32;20053;-62
2021/05/01 07:52:31;;;;;;;1.10;0.65;;;9.80;99.90;;;;;;4412715;32;20498;-62
2021/05/01 07:54:58;;;;;;;0.82;0.82;;;9.80;99.90;;;;;;4414847;32;20174;-63
2021/05/01 07:57:24;;;;;;;0.70;0.70;;;9.90;99.90;;;;;;4399808;32;20065;-62
2021/05/01 07:59:49;;;;;;;5.57;0.82;;;10.00;99.90;;;;;;4399904;32;20127;-63
2021/05/01 08:02:15;;;;;;;3.05;0.95;;;10.10;99.90;;;;;;4412407;32;20066;-61
2021/05/01 08:04:41;;;;;;;2.75;1.33;;;10.10;99.90;;;;;;4400146;32;20583;-62
2021/05/01 08:07:06;;;;;;;3.55;1.02;;;10.10;99.90;;;;;;4399654;32;20120;-60
2021/05/01 08:09:32;;;;;;;1.27;0.77;;;10.20;99.90;;;;;;4414776;32;20068;-62
2021/05/01 08:11:57;;;;;;;5.32;1.15;;;10.30;99.90;;;;;;4417407;32;20082;-62
2021/05/01 08:14:23;;;;;;;4.12;1.00;;;10.40;99.90;;;;;;4416550;32;20070;-61
2021/05/01 08:16:48;;;;;;;3.15;1.10;;;10.30;99.90;;;;;;4419216;32;20065;-62
2021/05/01 08:19:14;;;;;;;3.55;1.27;;;10.50;99.90;;;;;;4431488;32;20054;-62
2021/05/01 08:21:40;;;;;;;1.10;0.80;;;10.80;99.90;;;;;;4418057;32;20526;-61
2021/05/01 08:24:06;;;;;;;1.15;0.62;;;10.90;99.90;;;;;;4431395;32;20057;-63
2021/05/01 08:26:31;;;;;;;0.80;0.80;;;11.10;99.90;;;;;;4431462;32;20470;-63
2021/05/01 08:28:57;;;;;;;1.77;0.77;;;11.40;99.90;;;;;;4418436;32;20057;-63
2021/05/01 08:31:22;;;;;;;1.50;0.70;;;11.30;99.90;;;;;;4429764;32;20157;-63
2021/05/01 08:33:48;;;;;;;0.70;0.70;;;11.30;99.90;;;;;;4431343;32;20058;-63
2021/05/01 08:36:13;;;;;;;3.00;1.10;;;11.30;99.90;;;;;;4401937;32;20116;-62
2021/05/01 08:38:39;;;;;;;0.75;0.75;;;11.40;99.90;;;;;;4415822;32;20393;-62
2021/05/01 08:41:06;;;;;;;1.83;1.35;;;11.60;99.90;;;;;;4416435;32;20487;-62
2021/05/01 08:43:32;;;;;;;2.33;0.82;;;11.90;99.90;;;;;;4416296;32;20113;-62
2021/05/01 08:45:59;;;;;;;8.18;1.42;;;12.00;99.90;;;;;;4391034;32;20053;-62
2021/05/01 08:48:26;;;;;;;0.93;0.60;;;12.00;99.90;;;;;;4402540;32;20081;-62
2021/05/01 08:50:58;;;;;;;1.10;0.98;;;12.10;99.90;;;;;;4401686;32;20066;-62
2021/05/01 08:53:24;;;;;;;2.80;1.30;;;12.50;99.90;;;;;;4414775;32;20070;-62
2021/05/01 08:55:50;;;;;;;1.75;0.98;;;12.80;99.90;;;;;;4402680;32;20061;-62
2021/05/01 08:58:15;;;;;;;0.47;0.47;;;12.30;99.90;;;;;;4416106;32;20062;-62
2021/05/01 09:00:43;;;;;;;2.83;0.65;;;12.40;99.90;;;;;;4402080;32;20065;-63
2021/05/01 09:03:11;;;;;;;1.30;0.60;;;12.80;99.90;;;;;;4402313;32;20054;-62
2021/05/01 09:05:38;;;;;;;1.12;1.02;;;13.10;99.90;;;;;;4389691;32;20066;-62
2021/05/01 09:08:05;;;;;;;0.45;0.40;;;12.80;99.90;;;;;;4414953;32;20069;-63
2021/05/01 09:10:40;;;;;;;0.65;0.65;;;12.10;99.90;;;;;;4401513;32;20070;-63
2021/05/01 09:13:27;;;;;;;0.60;0.60;;;12.00;99.90;;;;;;4399464;32;20077;-63
2021/05/01 09:16:09;;;;;;;0.98;0.75;;;12.10;99.90;;;;;;4399862;32;20066;-62
2021/05/01 09:18:55;;;;;;;0.75;0.75;;;12.10;99.90;;;;;;4415756;32;20122;-62
2021/05/01 09:21:23;;;;;;;1.15;0.80;;;12.00;99.90;;;;;;4430452;32;20485;-62
2021/05/01 09:23:49;;;;;;;1.27;0.90;;;11.90;99.90;;;;;;4417549;32;20412;-61
2021/05/01 09:26:18;;;;;;;2.95;1.45;;;12.00;99.90;;;;;;4406153;32;20057;-63
2021/05/01 09:28:50;;;;;;;0.70;0.70;;;12.00;99.90;;;;;;4401948;32;20376;-63
2021/05/01 09:31:17;;;;;;;0.65;0.65;;;12.00;99.90;;;;;;4400601;32;20070;-62
2021/05/01 09:33:50;;;;;;;6.45;1.77;;;12.10;99.90;;;;;;4400150;32;20070;-61
2021/05/01 09:36:19;;;;;;;1.27;0.98;;;12.20;99.90;;;;;;4400891;32;20074;-63
2021/05/01 09:38:48;;;;;;;1.55;0.62;;;12.40;99.90;;;;;;4398115;32;82577;-64
2021/05/01 09:41:24;;;;;;;1.90;0.95;;;12.60;99.90;;;;;;4411929;32;20065;-63
2021/05/01 09:44:10;;;;;;;1.42;1.00;;;12.60;99.90;;;;;;4414629;32;20070;-63
2021/05/01 09:46:39;;;;;;;1.30;0.50;;;12.70;99.90;;;;;;4402615;32;20454;-62
2021/05/01 09:49:12;;;;;;;0.50;0.50;;;12.70;99.90;;;;;;4413310;32;20209;-63
2021/05/01 09:51:51;;;;;;;1.55;0.70;;;12.80;99.90;;;;;;4399604;32;20074;-63
2021/05/01 09:54:23;;;;;;;1.27;0.70;;;12.90;99.90;;;;;;4413572;32;20074;-63
2021/05/01 09:56:49;;;;;;;0.95;0.57;;;13.30;99.90;;;;;;4416603;32;20586;-63
2021/05/01 09:59:15;;;;;;;4.00;0.93;;;13.50;99.90;;;;;;4400222;32;20066;-62
2021/05/01 10:01:41;;;;;;;0.50;0.50;;;13.40;99.90;;;;;;4401287;32;20134;-63
2021/05/01 10:04:22;;;;;;;0.82;0.77;;;13.50;99.90;;;;;;4401618;32;20057;-63
2021/05/01 10:06:49;;;;;;;;;;;13.40;99.90;;;;;;4415655;32;20061;-64
2021/05/01 10:09:25;;;;;;;1.48;0.52;;;13.40;99.90;;;;;;4413875;32;19953;-63
2021/05/01 10:11:52;;;;;;;12.73;0.85;;;13.10;99.90;;;;;;4401416;32;20066;-61
2021/05/01 10:14:33;;;;;;;1.83;0.85;;;13.00;99.90;;;;;;4399922;32;20511;-63
2021/05/01 10:16:59;;;;;;;0.65;0.65;;;13.00;99.90;;;;;;4419798;32;20468;-63
2021/05/01 10:19:45;;;;;;;0.68;0.68;;;13.00;99.90;;;;;;4407512;32;20078;-63
2021/05/01 10:22:32;;;;;;;0.50;0.50;;;13.10;99.90;;;;;;4414951;32;20455;-63
2021/05/01 10:25:01;;;;;;;0.70;0.70;;;12.90;99.90;;;;;;4401286;32;20078;-62
2021/05/01 10:27:28;;;;;;;1.90;1.15;;;13.20;99.90;;;;;;4414227;32;20081;-63
2021/05/01 10:30:16;;;;;;;0.95;0.85;;;13.40;99.90;;;;;;4400439;32;20503;-65
2021/05/01 10:32:45;;;;;;;0.73;0.62;;;13.20;99.90;;;;;;4400157;32;20078;-64
2021/05/01 10:35:11;;;;;;;1.30;0.60;;;13.40;99.90;;;;;;4398311;32;20159;-63
2021/05/01 10:37:47;;;;;;;4.53;0.80;;;13.60;99.90;;;;;;4415044;32;20061;-63
2021/05/01 10:40:13;;;;;;;1.48;0.62;;;13.70;99.90;;;;;;4413592;32;20058;-63
2021/05/01 10:42:38;;;;;;;0.60;0.60;;;13.70;99.90;;;;;;4401631;32;20109;-61
2021/05/01 10:45:05;;;;;;;0.68;0.68;;;13.80;99.90;;;;;;4414979;32;20061;-63
2021/05/01 10:47:31;;;;;;;0.75;0.60;;;13.70;99.90;;;;;;4401115;32;20129;-63
2021/05/01 10:49:58;;;;;;;0.55;0.55;;;13.70;99.90;;;;;;4400158;32;20077;-63
2021/05/01 10:52:24;;;;;;;0.62;0.60;;;13.70;99.90;;;;;;4414267;32;20400;-63
2021/05/01 10:54:56;;;;;;;0.50;0.50;;;13.80;99.90;;;;;;4400741;32;20120;-63
2021/05/01 10:57:22;;;;;;;0.90;0.50;;;13.90;99.90;;;;;;4400356;32;20396;-63
2021/05/01 11:00:07;;;;;;;1.25;0.60;;;14.00;99.90;;;;;;4401116;32;20124;-64
2021/05/01 11:02:35;;;;;;;0.70;0.60;;;14.30;99.90;;;;;;4398840;32;20062;-64
2021/05/01 11:05:05;;;;;;;0.37;0.37;;;14.30;99.90;;;;;;4399213;32;20053;-63
2021/05/01 11:08:00;;;;;;;1.85;0.65;;;14.00;99.90;;;;;;4388261;32;20070;-62
2021/05/01 11:10:27;;;;;;;0.37;0.37;;;13.90;99.90;;;;;;4400785;32;20058;-65
2021/05/01 11:12:55;;;;;;;1.75;0.75;;;13.90;99.90;;;;;;4399388;32;20531;-65
2021/05/01 11:15:23;;;;;;;0.70;0.70;;;13.90;99.90;;;;;;4400712;32;20058;-63
2021/05/01 11:18:05;;;;;;;1.17;0.85;;;13.80;99.90;;;;;;4390786;32;20074;-63
2021/05/01 11:20:34;;;;;;;1.85;0.75;;;13.80;99.90;;;;;;4398616;32;20441;-64
2021/05/01 11:23:01;;;;;;;0.50;0.50;;;13.60;99.90;;;;;;4397470;32;20490;-64
2021/05/01 11:25:30;;;;;;;1.23;1.05;;;13.70;99.90;;;;;;4414703;32;20541;-64
2021/05/01 11:27:57;;;;;;;0.75;0.75;;;13.70;99.90;;;;;;4400664;32;20562;-63
2021/05/01 11:30:25;;;;;;;1.08;1.00;;;13.80;99.90;;;;;;4414436;32;20082;-64
2021/05/01 11:32:52;;;;;;;0.80;0.73;;;13.90;99.90;;;;;;4399905;32;20075;-62
2021/05/01 11:35:21;;;;;;;0.50;0.50;;;13.80;99.90;;;;;;4400509;32;20124;-63
2021/05/01 11:37:51;;;;;;;0.57;0.57;;;13.80;99.90;;;;;;4401177;32;20377;-62
2021/05/01 11:40:18;;;;;;;4.05;0.70;;;14.00;99.90;;;;;;4400006;32;20448;-63
2021/05/01 11:42:45;;;;;;;0.65;0.60;;;14.10;99.90;;;;;;4390442;32;20077;-63
2021/05/01 11:45:18;;;;;;;1.30;1.08;;;14.10;99.90;;;;;;4391024;32;20058;-64
2021/05/01 11:47:49;;;;;;;0.98;0.68;;;14.10;99.90;;;;;;4416238;32;20061;-63
2021/05/01 11:50:16;;;;;;;0.57;0.57;;;14.10;99.90;;;;;;4415288;32;20070;-64
2021/05/01 11:52:59;;;;;;;6.12;0.60;;;14.20;99.90;;;;;;4417275;32;20526;-62
2021/05/01 11:55:28;;;;;;;0.73;0.73;;;14.20;99.90;;;;;;4417094;32;20502;-64
2021/05/01 11:57:56;;;;;;;0.50;0.50;;;14.20;99.90;;;;;;4417221;32;20120;-61
2021/05/01 12:00:33;;;;;;;0.77;0.75;;;14.10;99.90;;;;;;4401915;32;20079;-62
2021/05/01 12:03:01;;;;;;;0.85;0.75;;;13.90;99.90;;;;;;4402130;32;20412;-63
2021/05/01 12:05:34;;;;;;;2.05;1.17;;;13.80;99.90;;;;;;4388962;32;20506;-63
2021/05/01 12:08:21;;;;;;;0.50;0.50;;;13.70;99.90;;;;;;4401896;32;20476;-62
2021/05/01 12:10:50;;;;;;;0.43;0.43;;;13.60;99.90;;;;;;4405216;32;20058;-62
2021/05/01 12:13:35;;;;;;;0.60;0.60;;;13.50;99.90;;;;;;4416988;32;20068;-63
2021/05/01 12:16:02;;;;;;;0.50;0.50;;;13.30;99.90;;;;;;4403409;32;20109;-63
2021/05/01 12:18:45;;;;;;;0.60;0.60;;;13.20;99.90;;;;;;4403858;32;20086;-63
2021/05/01 12:21:15;;;;;;;0.60;0.60;;;13.20;99.90;;;;;;4414534;32;20195;-63
2021/05/01 12:23:44;;;;;;;0.55;0.55;;;13.30;99.90;;;;;;4402331;32;20113;-63
2021/05/01 12:26:35;;;;;;;0.60;0.60;;;13.30;99.90;;;;;;4416488;32;20082;-63
2021/05/01 12:29:25;;;;;;;0.40;0.40;;;13.40;99.90;;;;;;4405679;32;20070;-63
2021/05/01 12:31:53;;;;;;;1.73;0.88;;;13.60;99.90;;;;;;4403103;32;20113;-63
2021/05/01 12:34:20;;;;;;;0.60;0.60;;;13.80;99.90;;;;;;4403200;32;20054;-63
2021/05/01 12:36:51;;;;;;;2.62;0.82;;;14.00;99.90;;;;;;4401888;32;20125;-63
2021/05/01 12:39:17;;;;;;;;;;;14.00;99.90;;;;;;4415232;32;20069;-62
2021/05/01 12:41:45;;;;;;;0.68;0.55;;;14.10;99.90;;;;;;4402287;32;19968;-63
2021/05/01 12:44:32;;;;;;;1.08;0.80;;;14.40;99.90;;;;;;4403445;32;20108;-63
2021/05/01 12:46:58;;;;;;;0.50;0.50;;;14.50;99.90;;;;;;4404607;32;20124;-63
2021/05/01 12:49:26;;;;;;;1.50;0.93;;;14.40;99.90;;;;;;4415081;32;20140;-62
2021/05/01 12:51:55;;;;;;;0.70;0.62;;;14.60;99.90;;;;;;4402248;32;20069;-63
2021/05/01 12:54:23;;;;;;;1.23;1.12;;;14.70;99.90;;;;;;4415133;32;20440;-62
2021/05/01 12:56:51;;;;;;;0.82;0.80;;;14.60;99.90;;;;;;4416744;32;20054;-62